sensor_id;sensor_type;location;lat;lon;timestamp;noise_LAeq;noise_LA_min;noise_LA_max;noise_LA01;noise_LA95
68599;Laerm;18038;50.166;18.908;2023-05-01T00:02:17;48.03;46.42;53.77;;
68599;Laerm;18038;50.166;18.908;2023-05-01T00:05:26;47.87;46.45;50.12;;
68599;Laerm;18038;50.166;18.908;2023-05-01T00:08:33;48.68;46.53;58.64;;
68599;Laerm;18038;50.166;18.908;2023-05-01T00:11:40;47.90;46.69;49.64;;
68599;Laerm;18038;50.166;18.908;2023-05-01T00:14:46;47.98;46.52;52.11;;
68599;Laerm;18038;50.166;18.908;2023-05-01T00:17:53;48.13;46.59;56.85;;
68599;Laerm;18038;50.166;18.908;2023-05-01T00:21:01;47.80;46.55;55.45;;
68599;Laerm;18038;50.166;18.908;2023-05-01T00:24:09;47.79;46.39;49.64;;
68599;Laerm;18038;50.166;18.908;2023-05-01T00:27:15;47.82;46.57;50.15;;
68599;Laerm;18038;50.166;18.908;2023-05-01T00:30:22;47.76;46.38;49.42;;
68599;Laerm;18038;50.166;18.908;2023-05-01T00:33:29;47.80;46.41;49.70;;
68599;Laerm;18038;50.166;18.908;2023-05-01T00:36:39;47.85;46.59;49.77;;
68599;Laerm;18038;50.166;18.908;2023-05-01T00:39:45;48.08;46.36;55.37;;
68599;Laerm;18038;50.166;18.908;2023-05-01T00:42:51;47.91;46.49;54.31;;
68599;Laerm;18038;50.166;18.908;2023-05-01T00:45:58;48.02;46.55;56.73;;
68599;Laerm;18038;50.166;18.908;2023-05-01T00:49:04;48.50;46.41;58.02;;
68599;Laerm;18038;50.166;18.908;2023-05-01T00:52:13;47.75;46.49;50.08;;
68599;Laerm;18038;50.166;18.908;2023-05-01T00:55:21;48.00;46.54;54.55;;
68599;Laerm;18038;50.166;18.908;2023-05-01T00:58:28;47.75;46.36;50.00;;
68599;Laerm;18038;50.166;18.908;2023-05-01T01:01:37;47.75;46.66;49.63;;
68599;Laerm;18038;50.166;18.908;2023-05-01T01:04:45;47.76;46.43;49.83;;
68599;Laerm;18038;50.166;18.908;2023-05-01T01:08:07;48.13;46.29;56.64;;
68599;Laerm;18038;50.166;18.908;2023-05-01T01:11:29;47.87;46.50;50.99;;
68599;Laerm;18038;50.166;18.908;2023-05-01T01:14:49;47.98;46.31;54.33;;
68599;Laerm;18038;50.166;18.908;2023-05-01T01:18:11;48.40;46.53;59.94;;
68599;Laerm;18038;50.166;18.908;2023-05-01T01:21:30;47.73;46.51;49.93;;
68599;Laerm;18038;50.166;18.908;2023-05-01T01:25:28;47.69;46.25;49.87;;
68599;Laerm;18038;50.166;18.908;2023-05-01T01:29:25;47.87;46.55;52.22;;
68599;Laerm;18038;50.166;18.908;2023-05-01T01:33:21;47.82;46.52;50.45;;
68599;Laerm;18038;50.166;18.908;2023-05-01T01:36:42;47.82;46.58;50.87;;
68599;Laerm;18038;50.166;18.908;2023-05-01T01:39:59;48.56;46.63;58.11;;
68599;Laerm;18038;50.166;18.908;2023-05-01T01:43:14;47.82;46.36;49.72;;
68599;Laerm;18038;50.166;18.908;2023-05-01T01:46:25;47.77;46.54;49.85;;
68599;Laerm;18038;50.166;18.908;2023-05-01T01:49:38;47.72;46.26;50.25;;
68599;Laerm;18038;50.166;18.908;2023-05-01T01:52:51;47.63;46.18;50.58;;
68599;Laerm;18038;50.166;18.908;2023-05-01T01:56:03;47.64;46.37;49.76;;
68599;Laerm;18038;50.166;18.908;2023-05-01T01:59:10;47.71;46.21;50.37;;
68599;Laerm;18038;50.166;18.908;2023-05-01T02:02:21;47.87;46.26;51.55;;
68599;Laerm;18038;50.166;18.908;2023-05-01T02:05:32;48.12;46.45;55.15;;
68599;Laerm;18038;50.166;18.908;2023-05-01T02:08:46;47.98;46.17;55.53;;
68599;Laerm;18038;50.166;18.908;2023-05-01T02:11:56;48.05;46.30;57.19;;
68599;Laerm;18038;50.166;18.908;2023-05-01T02:15:07;48.28;46.19;61.15;;
68599;Laerm;18038;50.166;18.908;2023-05-01T02:18:15;47.92;46.19;58.92;;
68599;Laerm;18038;50.166;18.908;2023-05-01T02:21:24;47.68;46.33;52.88;;
68599;Laerm;18038;50.166;18.908;2023-05-01T02:24:38;48.13;46.19;54.39;;
68599;Laerm;18038;50.166;18.908;2023-05-01T02:27:53;47.82;46.31;54.17;;
68599;Laerm;18038;50.166;18.908;2023-05-01T02:31:00;47.62;46.16;50.89;;
68599;Laerm;18038;50.166;18.908;2023-05-01T02:34:07;49.19;46.21;60.02;;
68599;Laerm;18038;50.166;18.908;2023-05-01T02:37:15;47.94;46.25;57.10;;
68599;Laerm;18038;50.166;18.908;2023-05-01T02:40:26;48.46;46.34;58.43;;
68599;Laerm;18038;50.166;18.908;2023-05-01T02:43:36;48.07;46.31;56.07;;
68599;Laerm;18038;50.166;18.908;2023-05-01T02:46:47;48.30;46.10;56.72;;
68599;Laerm;18038;50.166;18.908;2023-05-01T02:49:58;47.98;46.16;59.25;;
68599;Laerm;18038;50.166;18.908;2023-05-01T02:53:07;47.97;46.21;54.55;;
68599;Laerm;18038;50.166;18.908;2023-05-01T02:56:28;48.81;46.12;61.23;;
68599;Laerm;18038;50.166;18.908;2023-05-01T02:59:35;49.55;46.26;61.48;;
68599;Laerm;18038;50.166;18.908;2023-05-01T03:02:42;49.49;46.31;60.13;;
68599;Laerm;18038;50.166;18.908;2023-05-01T03:05:50;48.25;46.18;54.92;;
68599;Laerm;18038;50.166;18.908;2023-05-01T03:08:56;50.52;46.23;60.07;;
68599;Laerm;18038;50.166;18.908;2023-05-01T03:12:05;54.35;46.17;69.73;;
68599;Laerm;18038;50.166;18.908;2023-05-01T03:15:11;53.48;46.36;71.39;;
68599;Laerm;18038;50.166;18.908;2023-05-01T03:18:19;49.20;46.39;60.02;;
68599;Laerm;18038;50.166;18.908;2023-05-01T03:21:28;49.32;46.35;60.74;;
68599;Laerm;18038;50.166;18.908;2023-05-01T03:24:35;50.93;46.32;67.18;;
68599;Laerm;18038;50.166;18.908;2023-05-01T03:27:44;50.67;46.25;65.09;;
68599;Laerm;18038;50.166;18.908;2023-05-01T03:30:52;48.66;46.14;60.28;;
68599;Laerm;18038;50.166;18.908;2023-05-01T03:33:59;48.13;46.00;57.43;;
68599;Laerm;18038;50.166;18.908;2023-05-01T03:37:06;47.86;46.29;52.86;;
68599;Laerm;18038;50.166;18.908;2023-05-01T03:40:12;48.32;46.20;56.34;;
68599;Laerm;18038;50.166;18.908;2023-05-01T03:43:41;48.92;46.04;59.33;;
68599;Laerm;18038;50.166;18.908;2023-05-01T03:47:07;51.25;46.33;67.53;;
68599;Laerm;18038;50.166;18.908;2023-05-01T03:50:17;48.74;46.21;58.13;;
68599;Laerm;18038;50.166;18.908;2023-05-01T03:53:25;48.29;46.27;55.15;;
68599;Laerm;18038;50.166;18.908;2023-05-01T03:56:33;48.85;46.31;60.00;;
68599;Laerm;18038;50.166;18.908;2023-05-01T03:59:44;48.37;46.22;56.71;;
68599;Laerm;18038;50.166;18.908;2023-05-01T04:02:52;48.36;46.23;61.09;;
68599;Laerm;18038;50.166;18.908;2023-05-01T04:05:59;48.36;46.40;56.13;;
68599;Laerm;18038;50.166;18.908;2023-05-01T04:09:06;48.00;46.18;54.32;;
68599;Laerm;18038;50.166;18.908;2023-05-01T04:12:12;48.74;46.40;57.98;;
68599;Laerm;18038;50.166;18.908;2023-05-01T04:15:22;49.39;46.36;59.06;;
68599;Laerm;18038;50.166;18.908;2023-05-01T04:18:28;48.59;46.30;57.88;;
68599;Laerm;18038;50.166;18.908;2023-05-01T04:21:35;48.74;46.36;58.32;;
68599;Laerm;18038;50.166;18.908;2023-05-01T04:24:41;48.80;46.21;59.11;;
68599;Laerm;18038;50.166;18.908;2023-05-01T04:27:48;48.48;46.33;57.84;;
68599;Laerm;18038;50.166;18.908;2023-05-01T04:30:57;48.53;46.22;60.20;;
68599;Laerm;18038;50.166;18.908;2023-05-01T04:34:04;48.30;46.20;57.56;;
68599;Laerm;18038;50.166;18.908;2023-05-01T04:37:12;48.23;46.08;56.52;;
68599;Laerm;18038;50.166;18.908;2023-05-01T04:40:21;48.35;46.33;57.51;;
68599;Laerm;18038;50.166;18.908;2023-05-01T04:43:27;48.71;45.95;58.87;;
68599;Laerm;18038;50.166;18.908;2023-05-01T04:46:37;49.01;46.12;71.76;;
68599;Laerm;18038;50.166;18.908;2023-05-01T04:49:46;47.91;46.22;65.03;;
68599;Laerm;18038;50.166;18.908;2023-05-01T04:52:53;48.65;46.24;57.98;;
68599;Laerm;18038;50.166;18.908;2023-05-01T04:55:59;48.46;46.20;61.04;;
68599;Laerm;18038;50.166;18.908;2023-05-01T04:59:08;52.11;46.21;69.31;;
68599;Laerm;18038;50.166;18.908;2023-05-01T05:02:17;52.86;46.18;73.28;;
68599;Laerm;18038;50.166;18.908;2023-05-01T05:05:24;50.34;46.31;60.67;;
68599;Laerm;18038;50.166;18.908;2023-05-01T05:08:30;48.33;46.14;63.37;;
68599;Laerm;18038;50.166;18.908;2023-05-01T05:11:44;48.48;46.24;55.79;;
68599;Laerm;18038;50.166;18.908;2023-05-01T05:14:57;49.81;46.34;63.55;;
68599;Laerm;18038;50.166;18.908;2023-05-01T05:18:08;48.75;46.32;59.03;;
68599;Laerm;18038;50.166;18.908;2023-05-01T05:21:14;49.18;46.32;58.71;;
68599;Laerm;18038;50.166;18.908;2023-05-01T05:24:26;51.43;46.45;68.85;;
68599;Laerm;18038;50.166;18.908;2023-05-01T05:27:32;48.64;46.17;58.82;;
68599;Laerm;18038;50.166;18.908;2023-05-01T05:30:40;48.83;46.33;59.83;;
68599;Laerm;18038;50.166;18.908;2023-05-01T05:34:06;48.56;46.33;62.26;;
68599;Laerm;18038;50.166;18.908;2023-05-01T05:37:14;49.12;46.28;59.45;;
68599;Laerm;18038;50.166;18.908;2023-05-01T05:40:25;50.51;46.09;62.79;;
68599;Laerm;18038;50.166;18.908;2023-05-01T05:43:33;52.94;47.63;61.86;;
68599;Laerm;18038;50.166;18.908;2023-05-01T05:46:41;51.86;46.61;59.69;;
68599;Laerm;18038;50.166;18.908;2023-05-01T05:49:56;49.04;46.53;58.86;;
68599;Laerm;18038;50.166;18.908;2023-05-01T05:53:02;49.49;46.42;59.66;;
68599;Laerm;18038;50.166;18.908;2023-05-01T05:56:09;49.30;46.47;60.80;;
68599;Laerm;18038;50.166;18.908;2023-05-01T05:59:15;49.72;46.51;58.02;;
68599;Laerm;18038;50.166;18.908;2023-05-01T06:02:24;50.52;46.29;60.57;;
68599;Laerm;18038;50.166;18.908;2023-05-01T06:05:33;51.41;46.96;68.82;;
68599;Laerm;18038;50.166;18.908;2023-05-01T06:08:40;50.88;46.42;69.16;;
68599;Laerm;18038;50.166;18.908;2023-05-01T06:11:48;52.41;46.50;70.67;;
68599;Laerm;18038;50.166;18.908;2023-05-01T06:14:55;52.22;46.50;72.30;;
68599;Laerm;18038;50.166;18.908;2023-05-01T06:18:01;49.45;46.37;62.85;;
68599;Laerm;18038;50.166;18.908;2023-05-01T06:21:11;49.46;46.40;59.35;;
68599;Laerm;18038;50.166;18.908;2023-05-01T06:24:22;49.55;46.52;62.30;;
68599;Laerm;18038;50.166;18.908;2023-05-01T06:27:33;50.90;46.54;65.38;;
68599;Laerm;18038;50.166;18.908;2023-05-01T06:30:39;49.81;46.43;70.68;;
68599;Laerm;18038;50.166;18.908;2023-05-01T06:33:47;49.93;46.39;62.22;;
68599;Laerm;18038;50.166;18.908;2023-05-01T06:37:34;50.22;46.66;67.18;;
68599;Laerm;18038;50.166;18.908;2023-05-01T06:40:43;52.39;46.71;68.86;;
68599;Laerm;18038;50.166;18.908;2023-05-01T06:43:50;51.04;46.67;63.44;;
68599;Laerm;18038;50.166;18.908;2023-05-01T06:46:56;50.07;46.59;62.32;;
68599;Laerm;18038;50.166;18.908;2023-05-01T06:50:05;51.16;46.54;61.93;;
68599;Laerm;18038;50.166;18.908;2023-05-01T06:53:15;50.41;46.65;63.21;;
68599;Laerm;18038;50.166;18.908;2023-05-01T06:56:21;49.81;46.55;66.98;;
68599;Laerm;18038;50.166;18.908;2023-05-01T06:59:30;50.82;46.62;70.35;;
68599;Laerm;18038;50.166;18.908;2023-05-01T07:02:36;54.59;46.52;81.40;;
68599;Laerm;18038;50.166;18.908;2023-05-01T07:05:43;53.90;46.99;78.14;;
68599;Laerm;18038;50.166;18.908;2023-05-01T07:08:52;50.42;46.81;64.51;;
68599;Laerm;18038;50.166;18.908;2023-05-01T07:11:59;50.46;46.52;66.06;;
68599;Laerm;18038;50.166;18.908;2023-05-01T07:15:13;50.65;46.81;62.54;;
68599;Laerm;18038;50.166;18.908;2023-05-01T07:18:24;50.25;46.37;68.61;;
68599;Laerm;18038;50.166;18.908;2023-05-01T07:21:31;50.79;46.81;62.49;;
68599;Laerm;18038;50.166;18.908;2023-05-01T07:24:40;50.10;46.85;61.23;;
68599;Laerm;18038;50.166;18.908;2023-05-01T07:27:53;50.30;46.71;60.68;;
68599;Laerm;18038;50.166;18.908;2023-05-01T07:31:01;50.38;46.78;63.64;;
68599;Laerm;18038;50.166;18.908;2023-05-01T07:34:07;51.12;46.99;65.26;;
68599;Laerm;18038;50.166;18.908;2023-05-01T07:37:14;52.11;46.85;73.14;;
68599;Laerm;18038;50.166;18.908;2023-05-01T07:40:27;50.68;46.87;65.07;;
68599;Laerm;18038;50.166;18.908;2023-05-01T07:43:34;50.14;46.71;66.54;;
68599;Laerm;18038;50.166;18.908;2023-05-01T07:46:42;50.92;46.97;67.64;;
68599;Laerm;18038;50.166;18.908;2023-05-01T07:49:50;52.84;46.63;72.19;;
68599;Laerm;18038;50.166;18.908;2023-05-01T07:52:56;51.74;46.49;68.53;;
68599;Laerm;18038;50.166;18.908;2023-05-01T07:56:08;50.39;46.72;66.30;;
68599;Laerm;18038;50.166;18.908;2023-05-01T07:59:15;53.49;47.04;74.97;;
68599;Laerm;18038;50.166;18.908;2023-05-01T08:02:22;54.29;47.12;74.15;;
68599;Laerm;18038;50.166;18.908;2023-05-01T08:05:31;58.10;46.76;84.71;;
68599;Laerm;18038;50.166;18.908;2023-05-01T08:08:38;52.67;46.45;71.71;;
68599;Laerm;18038;50.166;18.908;2023-05-01T08:11:47;50.80;46.29;68.16;;
68599;Laerm;18038;50.166;18.908;2023-05-01T08:14:55;52.27;46.91;68.67;;
68599;Laerm;18038;50.166;18.908;2023-05-01T08:18:01;53.81;47.05;70.89;;
68599;Laerm;18038;50.166;18.908;2023-05-01T08:21:09;53.31;46.58;72.56;;
68599;Laerm;18038;50.166;18.908;2023-05-01T08:24:15;53.06;46.49;75.20;;
68599;Laerm;18038;50.166;18.908;2023-05-01T08:27:25;54.35;46.84;72.23;;
68599;Laerm;18038;50.166;18.908;2023-05-01T08:30:31;52.00;46.93;67.04;;
68599;Laerm;18038;50.166;18.908;2023-05-01T08:33:40;51.51;47.02;71.08;;
68599;Laerm;18038;50.166;18.908;2023-05-01T08:36:46;52.23;46.59;71.36;;
68599;Laerm;18038;50.166;18.908;2023-05-01T08:39:58;56.20;46.92;74.06;;
68599;Laerm;18038;50.166;18.908;2023-05-01T08:43:13;53.22;46.78;70.31;;
68599;Laerm;18038;50.166;18.908;2023-05-01T08:46:34;54.74;46.58;75.29;;
68599;Laerm;18038;50.166;18.908;2023-05-01T08:49:44;53.77;46.66;76.67;;
68599;Laerm;18038;50.166;18.908;2023-05-01T08:52:57;51.00;46.56;67.04;;
68599;Laerm;18038;50.166;18.908;2023-05-01T08:56:05;51.01;46.85;61.70;;
68599;Laerm;18038;50.166;18.908;2023-05-01T08:59:23;52.62;46.91;74.08;;
68599;Laerm;18038;50.166;18.908;2023-05-01T09:02:35;50.25;46.87;61.02;;
68599;Laerm;18038;50.166;18.908;2023-05-01T09:05:48;52.05;46.89;69.51;;
68599;Laerm;18038;50.166;18.908;2023-05-01T09:08:54;55.93;46.77;86.08;;
68599;Laerm;18038;50.166;18.908;2023-05-01T09:12:13;51.47;46.76;68.11;;
68599;Laerm;18038;50.166;18.908;2023-05-01T09:15:27;51.55;46.70;68.43;;
68599;Laerm;18038;50.166;18.908;2023-05-01T09:18:35;51.51;46.93;69.75;;
68599;Laerm;18038;50.166;18.908;2023-05-01T09:21:42;53.55;46.96;75.28;;
68599;Laerm;18038;50.166;18.908;2023-05-01T09:24:50;53.83;46.91;70.50;;
68599;Laerm;18038;50.166;18.908;2023-05-01T09:28:03;53.46;46.82;75.24;;
68599;Laerm;18038;50.166;18.908;2023-05-01T09:31:24;51.02;46.53;77.02;;
68599;Laerm;18038;50.166;18.908;2023-05-01T09:34:31;52.05;46.71;68.01;;
68599;Laerm;18038;50.166;18.908;2023-05-01T09:37:40;50.86;46.69;67.76;;
68599;Laerm;18038;50.166;18.908;2023-05-01T09:40:50;53.31;46.63;74.10;;
68599;Laerm;18038;50.166;18.908;2023-05-01T09:43:59;52.64;46.57;70.27;;
68599;Laerm;18038;50.166;18.908;2023-05-01T09:47:09;52.39;46.79;70.74;;
68599;Laerm;18038;50.166;18.908;2023-05-01T09:50:32;52.82;46.36;70.92;;
68599;Laerm;18038;50.166;18.908;2023-05-01T09:53:39;53.53;46.70;72.59;;
68599;Laerm;18038;50.166;18.908;2023-05-01T09:56:48;51.13;46.70;65.30;;
68599;Laerm;18038;50.166;18.908;2023-05-01T10:00:05;51.26;47.06;64.39;;
68599;Laerm;18038;50.166;18.908;2023-05-01T10:03:15;53.22;47.55;67.19;;
68599;Laerm;18038;50.166;18.908;2023-05-01T10:06:27;54.34;47.69;68.92;;
68599;Laerm;18038;50.166;18.908;2023-05-01T10:09:34;55.97;47.30;77.29;;
68599;Laerm;18038;50.166;18.908;2023-05-01T10:12:40;51.82;46.94;66.21;;
68599;Laerm;18038;50.166;18.908;2023-05-01T10:15:48;50.37;47.27;64.84;;
68599;Laerm;18038;50.166;18.908;2023-05-01T10:18:59;50.91;47.12;58.88;;
68599;Laerm;18038;50.166;18.908;2023-05-01T10:22:07;50.79;47.39;60.80;;
68599;Laerm;18038;50.166;18.908;2023-05-01T10:25:16;51.49;47.08;66.83;;
68599;Laerm;18038;50.166;18.908;2023-05-01T10:28:23;49.70;47.02;61.26;;
68599;Laerm;18038;50.166;18.908;2023-05-01T10:31:30;50.16;46.93;63.69;;
68599;Laerm;18038;50.166;18.908;2023-05-01T10:34:48;52.18;46.93;64.83;;
68599;Laerm;18038;50.166;18.908;2023-05-01T10:38:01;52.89;47.02;69.76;;
68599;Laerm;18038;50.166;18.908;2023-05-01T10:41:09;53.54;46.77;70.42;;
68599;Laerm;18038;50.166;18.908;2023-05-01T10:44:20;53.06;47.09;70.40;;
68599;Laerm;18038;50.166;18.908;2023-05-01T10:47:45;53.07;46.95;76.14;;
68599;Laerm;18038;50.166;18.908;2023-05-01T10:51:13;53.27;46.99;81.93;;
68599;Laerm;18038;50.166;18.908;2023-05-01T10:54:26;50.66;46.97;57.93;;
68599;Laerm;18038;50.166;18.908;2023-05-01T10:57:43;50.97;46.78;67.39;;
68599;Laerm;18038;50.166;18.908;2023-05-01T11:01:31;49.57;46.68;61.32;;
68599;Laerm;18038;50.166;18.908;2023-05-01T11:04:48;50.31;46.75;61.99;;
68599;Laerm;18038;50.166;18.908;2023-05-01T11:08:32;49.82;46.87;57.11;;
68599;Laerm;18038;50.166;18.908;2023-05-01T11:11:46;50.13;46.72;60.19;;
68599;Laerm;18038;50.166;18.908;2023-05-01T11:15:04;52.17;46.91;65.37;;
68599;Laerm;18038;50.166;18.908;2023-05-01T11:18:11;53.07;46.73;70.27;;
68599;Laerm;18038;50.166;18.908;2023-05-01T11:21:28;49.92;46.59;68.22;;
68599;Laerm;18038;50.166;18.908;2023-05-01T11:24:38;51.02;46.80;68.33;;
68599;Laerm;18038;50.166;18.908;2023-05-01T11:27:48;51.44;46.61;65.20;;
68599;Laerm;18038;50.166;18.908;2023-05-01T11:30:55;51.26;46.57;62.94;;
68599;Laerm;18038;50.166;18.908;2023-05-01T11:34:03;50.77;46.59;63.48;;
68599;Laerm;18038;50.166;18.908;2023-05-01T11:37:09;51.55;46.54;65.89;;
68599;Laerm;18038;50.166;18.908;2023-05-01T11:40:24;52.08;46.74;70.39;;
68599;Laerm;18038;50.166;18.908;2023-05-01T11:43:31;50.06;46.43;59.64;;
68599;Laerm;18038;50.166;18.908;2023-05-01T11:46:38;51.40;46.81;63.18;;
68599;Laerm;18038;50.166;18.908;2023-05-01T11:49:51;49.17;46.20;61.68;;
68599;Laerm;18038;50.166;18.908;2023-05-01T11:52:58;49.97;46.50;58.14;;
68599;Laerm;18038;50.166;18.908;2023-05-01T11:56:18;50.32;46.85;69.45;;
68599;Laerm;18038;50.166;18.908;2023-05-01T11:59:30;50.26;46.79;61.13;;
68599;Laerm;18038;50.166;18.908;2023-05-01T12:02:36;50.45;46.78;62.32;;
68599;Laerm;18038;50.166;18.908;2023-05-01T12:05:44;51.02;46.57;58.56;;
68599;Laerm;18038;50.166;18.908;2023-05-01T12:08:51;50.07;46.44;59.97;;
68599;Laerm;18038;50.166;18.908;2023-05-01T12:12:01;51.47;46.15;71.76;;
68599;Laerm;18038;50.166;18.908;2023-05-01T12:15:09;49.36;46.37;60.37;;
68599;Laerm;18038;50.166;18.908;2023-05-01T12:18:18;51.55;46.44;64.49;;
68599;Laerm;18038;50.166;18.908;2023-05-01T12:21:31;50.88;46.49;65.62;;
68599;Laerm;18038;50.166;18.908;2023-05-01T12:24:49;51.21;46.57;63.87;;
68599;Laerm;18038;50.166;18.908;2023-05-01T12:28:14;50.44;46.20;58.65;;
68599;Laerm;18038;50.166;18.908;2023-05-01T12:31:23;50.15;46.66;63.21;;
68599;Laerm;18038;50.166;18.908;2023-05-01T12:34:29;49.66;46.26;59.88;;
68599;Laerm;18038;50.166;18.908;2023-05-01T12:37:37;49.97;46.28;61.96;;
68599;Laerm;18038;50.166;18.908;2023-05-01T12:40:52;51.69;46.52;63.68;;
68599;Laerm;18038;50.166;18.908;2023-05-01T12:44:02;50.53;46.61;66.63;;
68599;Laerm;18038;50.166;18.908;2023-05-01T12:47:19;50.50;46.18;58.46;;
68599;Laerm;18038;50.166;18.908;2023-05-01T12:50:35;50.92;46.42;66.80;;
68599;Laerm;18038;50.166;18.908;2023-05-01T12:53:43;52.45;46.52;70.04;;
68599;Laerm;18038;50.166;18.908;2023-05-01T12:56:52;52.00;46.59;70.57;;
68599;Laerm;18038;50.166;18.908;2023-05-01T13:00:05;51.27;46.62;67.99;;
68599;Laerm;18038;50.166;18.908;2023-05-01T13:03:13;49.70;46.40;56.60;;
68599;Laerm;18038;50.166;18.908;2023-05-01T13:06:20;49.97;46.15;60.00;;
68599;Laerm;18038;50.166;18.908;2023-05-01T13:09:29;56.68;46.32;80.06;;
68599;Laerm;18038;50.166;18.908;2023-05-01T13:12:43;49.40;46.22;58.48;;
68599;Laerm;18038;50.166;18.908;2023-05-01T13:16:04;49.30;46.33;60.91;;
68599;Laerm;18038;50.166;18.908;2023-05-01T13:19:11;49.46;46.11;56.50;;
68599;Laerm;18038;50.166;18.908;2023-05-01T13:22:28;49.38;46.22;57.66;;
68599;Laerm;18038;50.166;18.908;2023-05-01T13:25:35;51.40;46.53;59.21;;
68599;Laerm;18038;50.166;18.908;2023-05-01T13:28:43;49.58;46.24;58.79;;
68599;Laerm;18038;50.166;18.908;2023-05-01T13:31:56;50.17;46.39;66.96;;
68599;Laerm;18038;50.166;18.908;2023-05-01T13:35:09;49.73;46.30;63.20;;
68599;Laerm;18038;50.166;18.908;2023-05-01T13:38:15;49.37;46.24;56.71;;
68599;Laerm;18038;50.166;18.908;2023-05-01T13:41:27;49.57;46.35;56.76;;
68599;Laerm;18038;50.166;18.908;2023-05-01T13:44:41;50.24;46.30;60.60;;
68599;Laerm;18038;50.166;18.908;2023-05-01T13:47:54;49.83;46.39;57.84;;
68599;Laerm;18038;50.166;18.908;2023-05-01T13:51:00;49.65;46.13;62.95;;
68599;Laerm;18038;50.166;18.908;2023-05-01T13:54:08;50.17;46.31;59.64;;
68599;Laerm;18038;50.166;18.908;2023-05-01T13:57:15;50.06;46.47;59.78;;
68599;Laerm;18038;50.166;18.908;2023-05-01T14:00:29;49.90;46.20;61.16;;
68599;Laerm;18038;50.166;18.908;2023-05-01T14:03:40;50.71;45.77;67.45;;
68599;Laerm;18038;50.166;18.908;2023-05-01T14:06:49;50.63;46.38;63.74;;
68599;Laerm;18038;50.166;18.908;2023-05-01T14:09:57;50.90;46.62;63.74;;
68599;Laerm;18038;50.166;18.908;2023-05-01T14:13:07;50.45;46.15;61.33;;
68599;Laerm;18038;50.166;18.908;2023-05-01T14:16:23;49.56;46.32;58.36;;
68599;Laerm;18038;50.166;18.908;2023-05-01T14:19:33;49.15;46.43;57.81;;
68599;Laerm;18038;50.166;18.908;2023-05-01T14:22:44;50.34;46.26;74.27;;
68599;Laerm;18038;50.166;18.908;2023-05-01T14:25:54;62.69;46.64;87.23;;
68599;Laerm;18038;50.166;18.908;2023-05-01T14:29:00;49.76;46.21;58.88;;
68599;Laerm;18038;50.166;18.908;2023-05-01T14:32:08;49.93;46.42;64.39;;
68599;Laerm;18038;50.166;18.908;2023-05-01T14:35:20;50.94;46.38;65.65;;
68599;Laerm;18038;50.166;18.908;2023-05-01T14:38:28;49.73;46.44;57.84;;
68599;Laerm;18038;50.166;18.908;2023-05-01T14:41:42;49.70;46.49;67.34;;
68599;Laerm;18038;50.166;18.908;2023-05-01T14:44:52;50.30;46.21;63.15;;
68599;Laerm;18038;50.166;18.908;2023-05-01T14:48:00;52.46;46.49;69.11;;
68599;Laerm;18038;50.166;18.908;2023-05-01T14:51:18;50.26;46.34;61.29;;
68599;Laerm;18038;50.166;18.908;2023-05-01T14:54:26;49.48;46.24;64.92;;
68599;Laerm;18038;50.166;18.908;2023-05-01T14:57:33;51.11;46.38;67.01;;
68599;Laerm;18038;50.166;18.908;2023-05-01T15:00:39;50.63;46.53;67.79;;
68599;Laerm;18038;50.166;18.908;2023-05-01T15:03:46;51.28;46.62;62.12;;
68599;Laerm;18038;50.166;18.908;2023-05-01T15:06:55;51.20;46.64;58.51;;
68599;Laerm;18038;50.166;18.908;2023-05-01T15:10:03;53.30;46.69;67.15;;
68599;Laerm;18038;50.166;18.908;2023-05-01T15:13:13;53.77;48.26;62.01;;
68599;Laerm;18038;50.166;18.908;2023-05-01T15:16:20;52.99;46.80;64.07;;
68599;Laerm;18038;50.166;18.908;2023-05-01T15:19:26;49.89;46.56;69.37;;
68599;Laerm;18038;50.166;18.908;2023-05-01T15:22:36;49.84;45.78;58.24;;
68599;Laerm;18038;50.166;18.908;2023-05-01T15:25:42;51.57;46.40;67.31;;
68599;Laerm;18038;50.166;18.908;2023-05-01T15:28:50;51.65;46.44;66.13;;
68599;Laerm;18038;50.166;18.908;2023-05-01T15:31:56;50.11;46.31;61.29;;
68599;Laerm;18038;50.166;18.908;2023-05-01T15:35:15;50.27;46.49;58.02;;
68599;Laerm;18038;50.166;18.908;2023-05-01T15:38:25;50.69;46.33;67.26;;
68599;Laerm;18038;50.166;18.908;2023-05-01T15:41:33;51.29;46.50;66.46;;
68599;Laerm;18038;50.166;18.908;2023-05-01T15:44:39;53.59;47.01;69.03;;
68599;Laerm;18038;50.166;18.908;2023-05-01T15:47:46;52.09;46.53;67.32;;
68599;Laerm;18038;50.166;18.908;2023-05-01T15:50:52;51.66;46.67;68.12;;
68599;Laerm;18038;50.166;18.908;2023-05-01T15:54:02;50.69;46.46;62.80;;
68599;Laerm;18038;50.166;18.908;2023-05-01T15:57:08;51.42;46.48;65.03;;
68599;Laerm;18038;50.166;18.908;2023-05-01T16:00:16;49.62;46.36;58.32;;
68599;Laerm;18038;50.166;18.908;2023-05-01T16:03:34;51.30;46.36;65.04;;
68599;Laerm;18038;50.166;18.908;2023-05-01T16:06:41;49.50;46.32;60.01;;
68599;Laerm;18038;50.166;18.908;2023-05-01T16:09:51;51.47;46.51;67.60;;
68599;Laerm;18038;50.166;18.908;2023-05-01T16:12:58;49.34;46.44;56.98;;
68599;Laerm;18038;50.166;18.908;2023-05-01T16:16:07;51.69;46.59;62.71;;
68599;Laerm;18038;50.166;18.908;2023-05-01T16:19:17;52.00;46.75;68.30;;
68599;Laerm;18038;50.166;18.908;2023-05-01T16:22:31;50.20;46.38;66.27;;
68599;Laerm;18038;50.166;18.908;2023-05-01T16:25:43;51.29;46.54;71.48;;
68599;Laerm;18038;50.166;18.908;2023-05-01T16:28:59;51.94;46.70;66.00;;
68599;Laerm;18038;50.166;18.908;2023-05-01T16:32:10;49.81;46.34;63.45;;
68599;Laerm;18038;50.166;18.908;2023-05-01T16:35:17;51.66;46.33;63.54;;
68599;Laerm;18038;50.166;18.908;2023-05-01T16:38:25;55.91;46.45;75.58;;
68599;Laerm;18038;50.166;18.908;2023-05-01T16:41:43;52.41;46.35;67.26;;
68599;Laerm;18038;50.166;18.908;2023-05-01T16:44:50;52.47;46.62;79.93;;
68599;Laerm;18038;50.166;18.908;2023-05-01T16:47:58;50.64;46.62;63.26;;
68599;Laerm;18038;50.166;18.908;2023-05-01T16:51:10;52.76;46.45;70.73;;
68599;Laerm;18038;50.166;18.908;2023-05-01T16:54:24;53.10;46.50;81.55;;
68599;Laerm;18038;50.166;18.908;2023-05-01T16:57:37;52.30;46.64;78.02;;
68599;Laerm;18038;50.166;18.908;2023-05-01T17:00:46;51.34;46.71;62.05;;
68599;Laerm;18038;50.166;18.908;2023-05-01T17:04:05;50.74;46.50;63.23;;
68599;Laerm;18038;50.166;18.908;2023-05-01T17:07:27;51.29;46.66;68.72;;
68599;Laerm;18038;50.166;18.908;2023-05-01T17:10:33;50.69;46.39;65.46;;
68599;Laerm;18038;50.166;18.908;2023-05-01T17:13:42;50.29;46.43;63.79;;
68599;Laerm;18038;50.166;18.908;2023-05-01T17:16:53;56.21;46.79;72.57;;
68599;Laerm;18038;50.166;18.908;2023-05-01T17:20:00;50.32;46.53;61.61;;
68599;Laerm;18038;50.166;18.908;2023-05-01T17:23:14;51.90;46.48;63.32;;
68599;Laerm;18038;50.166;18.908;2023-05-01T17:26:24;65.48;46.88;93.12;;
68599;Laerm;18038;50.166;18.908;2023-05-01T17:29:33;52.49;46.89;63.21;;
68599;Laerm;18038;50.166;18.908;2023-05-01T17:32:41;63.32;46.40;84.19;;